메인 페이지
METAR-TAF:

METAR-TAF

공항 :

벤구리온 국제공항

텔아비브 / 벤구리온, 이스라엘

위도: 32-00N, 경도: 034-54E, 고도: 40m

현재 날씨관측

예보는 20분 전, 15:50시(UTC)에 발표되었습니다.
여러 방향의 바람 2kt
온도 17°C
습도 68%
기압 1020 hPa
시정 10km 이상
1500m 미만 상공 구름 및 적란운 없음

METAR: LLBG 181550Z VRB02KT CAVOK 17/11 Q1020 NOSIG

시각: 18:10 (16:10 UTC)

예보

예보는 4 시간 54분 전, 11:16시(UTC)에 발표되었습니다.
예보 대상 시간: 18일 12시부터 19일 12시까지 (UTC)
남서12kt
시정 10km 이상
고도 3500ft 상공 구름 조금
전환 중
18일 15시부터 18일 17시까지 (UTC)
남동8kt
전환 중
19일 07시부터 19일 09시까지 (UTC)
남서13kt
시정 10km 이상
고도 3500ft 상공 구름 보통

TAF: LLBG 181116Z 1812/1912 22012KT 9999 FEW035 BECMG 1815/1817 14008KT BECMG 1907/1909 23013KT 9999 SCT035 TX20/1812Z TN13/1904Z

4,000개 이상의 공항 관측 자료 및 예보 (METAR 및 TAF 보고).

지도상에서 검색 가능한 기상관측소가 노란 점과 빨간 점으로 표시되어 있습니다.

기상관측소 명을 보려면 표시 위로 마우스를 이동하세요.

날씨 관측과 예보를 보려면 클릭하세요.

지도 변경 : 확대하려면 엑스 표시가 있는 녹색 버튼, 축소하려면 빼기 표시가 있는 녹색 버튼, 다음 페이지의 지도를 보려면 녹색 화살표를 클릭하세요.


METAR-TAF: